N08 weather

Flanagan Field
Farmville, North Carolina, United States

Public forecast

Using degrees Fahrenheit for public forecast. Weather courtesy of forecast.io.

Closest aviation weather report (METAR) to Flanagan Field

Report is more than 2 hours old.

Closest report is Pitt Greenville Airport, 9.8 nm (18.1 km) ENE. Retrieved 2020/02/20 01:55 UTC (2 hours ago):

KPGV 200155Z AUTO 00000KT 10SM SCT075 08/03 A3041 RMK AO2

Closest aviation forecast (TAF) to Flanagan Field

Closest forecast is Pitt Greenville Airport, 9.8 nm (18.1 km) ENE. Retrieved 2020-02-20 00:58 UTC (3 hours ago):

TAF KPGV 192356Z 2000/2024 04006KT P6SM BKN060 FM201600 03010KT 6SM -RA BKN015 FM201800 03010G17KT 6SM -RA OVC015 FM202000 02012G19KT 4SM -RA BR OVC007 AMD LTD TO CLD VIS AND WIND